createdAt,value
2018-10-02T00:01:20.092Z,7.70
2018-10-02T00:03:48.258Z,9.73
2018-10-02T00:06:16.409Z,10.48
2018-10-02T00:08:44.591Z,9.38
2018-10-02T00:11:18.299Z,9.53
2018-10-02T00:13:51.816Z,9.45
2018-10-02T00:16:19.986Z,8.35
2018-10-02T00:18:48.064Z,7.72
2018-10-02T00:21:16.114Z,7.93
2018-10-02T00:23:44.192Z,6.70
2018-10-02T00:26:12.253Z,7.65
2018-10-02T00:28:40.436Z,6.75
2018-10-02T00:31:09.768Z,6.60
2018-10-02T00:33:37.817Z,5.80
2018-10-02T00:36:05.969Z,5.70
2018-10-02T00:38:34.071Z,5.20
2018-10-02T00:41:02.228Z,4.30
2018-10-02T00:43:30.325Z,5.40
2018-10-02T00:45:58.465Z,4.85
2018-10-02T00:48:26.548Z,5.20
2018-10-02T00:50:54.632Z,4.97
2018-10-02T00:53:22.984Z,4.42
2018-10-02T00:55:51.210Z,4.50
2018-10-02T00:58:19.239Z,5.10
2018-10-02T01:00:47.445Z,4.83
2018-10-02T01:03:15.612Z,4.80
2018-10-02T01:05:43.684Z,5.20
2018-10-02T01:08:11.800Z,5.10
2018-10-02T01:10:40.364Z,5.20
2018-10-02T01:13:08.440Z,5.20
2018-10-02T01:15:36.465Z,5.65
2018-10-02T01:18:04.975Z,5.65
2018-10-02T01:20:33.327Z,6.22
2018-10-02T01:23:01.668Z,6.85
2018-10-02T01:25:29.704Z,6.63
2018-10-02T01:27:57.769Z,7.28
2018-10-02T01:30:25.953Z,7.70
2018-10-02T01:32:53.999Z,7.10
2018-10-02T01:35:22.208Z,7.60
2018-10-02T01:37:50.462Z,7.40
2018-10-02T01:40:18.771Z,7.60
2018-10-02T01:42:46.888Z,8.00
2018-10-02T01:45:15.049Z,7.90
2018-10-02T01:47:43.294Z,7.95
2018-10-02T01:50:11.660Z,9.18
2018-10-02T01:52:39.741Z,8.55
2018-10-02T01:55:07.935Z,8.30
2018-10-02T01:57:36.097Z,7.40
2018-10-02T02:00:04.728Z,8.75
2018-10-02T02:02:32.882Z,8.33
2018-10-02T02:05:01.103Z,9.10
2018-10-02T02:07:29.296Z,9.80
2018-10-02T02:09:57.388Z,8.75
2018-10-02T02:12:25.525Z,8.23
2018-10-02T02:14:53.837Z,8.65
2018-10-02T02:17:21.920Z,8.43
2018-10-02T02:19:50.002Z,9.50
2018-10-02T02:22:18.149Z,9.83
2018-10-02T02:24:46.323Z,9.63
2018-10-02T02:27:14.400Z,10.17
2018-10-02T02:29:42.568Z,9.80
2018-10-02T02:32:10.851Z,9.90
2018-10-02T02:34:39.036Z,10.32
2018-10-02T02:37:07.330Z,9.83
2018-10-02T02:39:35.345Z,9.35
2018-10-02T02:42:03.765Z,9.77
2018-10-02T02:44:31.976Z,8.68
2018-10-02T02:47:05.564Z,10.75
2018-10-02T02:49:39.241Z,9.20
2018-10-02T02:52:07.503Z,9.53
2018-10-02T02:54:35.596Z,10.03
2018-10-02T02:57:04.040Z,9.88
2018-10-02T02:59:32.354Z,9.85
2018-10-02T03:02:00.438Z,10.50
2018-10-02T03:04:28.495Z,9.63
2018-10-02T03:06:56.860Z,10.13
2018-10-02T03:09:24.940Z,9.83
2018-10-02T03:11:53.096Z,10.03
2018-10-02T03:14:21.304Z,10.70
2018-10-02T03:16:49.472Z,9.40
2018-10-02T03:19:17.552Z,9.78
2018-10-02T03:21:45.967Z,10.63
2018-10-02T03:24:13.976Z,11.48
2018-10-02T03:26:45.143Z,9.75
2018-10-02T03:29:16.403Z,10.53
2018-10-02T03:31:48.135Z,11.20
2018-10-02T03:34:25.450Z,10.55
2018-10-02T03:36:56.461Z,9.20
2018-10-02T03:39:27.831Z,10.20
2018-10-02T03:42:00.062Z,10.55
2018-10-02T03:44:32.172Z,9.88
2018-10-02T03:47:03.714Z,10.75
2018-10-02T03:49:35.453Z,9.70
2018-10-02T03:52:07.565Z,8.95
2018-10-02T03:54:39.099Z,9.70
2018-10-02T03:57:10.939Z,9.43
2018-10-02T03:59:42.495Z,9.58
2018-10-02T04:02:13.948Z,10.00
2018-10-02T04:04:45.408Z,9.63
2018-10-02T04:07:16.763Z,9.60
2018-10-02T04:09:45.029Z,9.58
2018-10-02T04:12:13.125Z,9.55
2018-10-02T04:14:41.291Z,9.93
2018-10-02T04:17:09.592Z,10.53
2018-10-02T04:19:37.677Z,10.10
2018-10-02T04:22:05.808Z,9.50
2018-10-02T04:24:34.005Z,9.48
2018-10-02T04:27:02.167Z,9.75
2018-10-02T04:29:30.266Z,9.75
2018-10-02T04:31:58.515Z,10.10
2018-10-02T04:34:26.609Z,10.25
2018-10-02T04:36:54.660Z,10.50
2018-10-02T04:39:22.863Z,9.15
2018-10-02T04:41:50.895Z,9.90
2018-10-02T04:44:19.112Z,11.00
2018-10-02T04:46:47.349Z,10.95
2018-10-02T04:49:15.558Z,11.70
2018-10-02T04:51:43.756Z,11.20
2018-10-02T04:54:11.800Z,10.50
2018-10-02T04:56:39.861Z,11.57
2018-10-02T04:59:08.895Z,11.85
2018-10-02T05:01:36.944Z,12.70
2018-10-02T05:04:05.093Z,11.68
2018-10-02T05:06:33.191Z,11.08
2018-10-02T05:09:01.346Z,11.73
2018-10-02T05:11:29.637Z,10.58
2018-10-02T05:13:57.756Z,10.80
2018-10-02T05:16:25.800Z,11.40
2018-10-02T05:18:53.947Z,10.85
2018-10-02T05:21:22.165Z,11.83
2018-10-02T05:23:50.198Z,10.58
2018-10-02T05:26:18.558Z,10.03
2018-10-02T05:28:46.672Z,10.70
2018-10-02T05:31:14.749Z,12.33
2018-10-02T05:33:42.807Z,11.10
2018-10-02T05:36:10.939Z,11.00
2018-10-02T05:38:38.951Z,9.65
2018-10-02T05:41:07.068Z,9.60
2018-10-02T05:43:35.076Z,9.83
2018-10-02T05:46:03.391Z,10.65
2018-10-02T05:48:31.559Z,10.58
2018-10-02T05:50:59.736Z,10.30
2018-10-02T05:53:27.838Z,10.15
2018-10-02T05:55:55.973Z,10.60
2018-10-02T05:58:24.336Z,10.78
2018-10-02T06:00:52.540Z,10.43
2018-10-02T06:03:20.612Z,9.98
2018-10-02T06:05:48.870Z,10.20
2018-10-02T06:08:17.056Z,10.38
2018-10-02T06:10:45.345Z,10.60
2018-10-02T06:13:13.525Z,10.43
2018-10-02T06:15:41.706Z,10.78
2018-10-02T06:18:09.784Z,10.80
2018-10-02T06:20:37.941Z,10.53
2018-10-02T06:23:06.185Z,9.73
2018-10-02T06:25:34.301Z,9.70
2018-10-02T06:28:02.470Z,9.68
2018-10-02T06:30:30.625Z,9.78
2018-10-02T06:32:58.547Z,9.18
2018-10-02T06:35:26.593Z,10.00
2018-10-02T06:37:54.741Z,9.87
2018-10-02T06:40:22.751Z,9.15
2018-10-02T06:42:50.778Z,8.68
2018-10-02T06:45:19.011Z,9.20
2018-10-02T06:47:47.039Z,9.63
2018-10-02T06:50:15.228Z,9.63
2018-10-02T06:52:43.413Z,9.28
2018-10-02T06:55:11.585Z,9.00
2018-10-02T06:57:39.736Z,9.73
2018-10-02T07:00:07.929Z,9.65
2018-10-02T07:02:36.039Z,10.55
2018-10-02T07:05:04.189Z,8.05
2018-10-02T07:07:32.341Z,8.60
2018-10-02T07:10:00.573Z,8.53
2018-10-02T07:12:28.734Z,8.23
2018-10-02T07:14:56.838Z,8.48
2018-10-02T07:17:24.956Z,9.20
2018-10-02T07:19:53.130Z,9.05
2018-10-02T07:22:21.222Z,9.33
2018-10-02T07:24:49.491Z,9.50
2018-10-02T07:27:18.003Z,8.60
2018-10-02T07:29:45.910Z,8.73
2018-10-02T07:32:14.109Z,8.08
2018-10-02T07:34:42.406Z,8.33
2018-10-02T07:37:10.580Z,8.20
2018-10-02T07:39:38.625Z,8.33
2018-10-02T07:42:06.907Z,8.68
2018-10-02T07:44:34.881Z,8.83
2018-10-02T07:47:02.941Z,8.55
2018-10-02T07:49:31.307Z,8.88
2018-10-02T07:51:59.495Z,8.85
2018-10-02T07:54:27.591Z,8.30
2018-10-02T07:56:55.763Z,8.60
2018-10-02T07:59:23.958Z,9.00
2018-10-02T08:01:51.995Z,8.60
2018-10-02T08:04:20.072Z,8.30
2018-10-02T08:06:48.136Z,8.80
2018-10-02T08:09:16.349Z,8.70
2018-10-02T08:11:44.422Z,8.60
2018-10-02T08:14:12.485Z,8.70
2018-10-02T08:16:40.540Z,8.98
2018-10-02T08:19:08.795Z,8.20
2018-10-02T08:21:37.065Z,6.60
2018-10-02T08:24:05.230Z,6.90
2018-10-02T08:26:33.475Z,7.30
2018-10-02T08:29:01.529Z,6.95
2018-10-02T08:31:29.714Z,6.50
2018-10-02T08:33:57.754Z,6.87
2018-10-02T08:36:26.091Z,6.60
2018-10-02T08:38:54.221Z,6.50
2018-10-02T08:41:22.613Z,7.30
2018-10-02T08:43:50.847Z,5.83
2018-10-02T08:46:18.965Z,6.85
2018-10-02T08:48:47.210Z,6.70
2018-10-02T08:51:15.438Z,5.53
2018-10-02T08:53:43.611Z,6.07
2018-10-02T08:56:11.567Z,5.65
2018-10-02T08:58:39.722Z,6.05
2018-10-02T09:01:08.362Z,5.55
2018-10-02T09:03:36.372Z,5.60
2018-10-02T09:06:04.453Z,6.42
2018-10-02T09:08:32.516Z,6.80
2018-10-02T09:11:00.848Z,6.70
2018-10-02T09:13:28.869Z,6.53
2018-10-02T09:15:57.235Z,7.03
2018-10-02T09:18:25.368Z,7.50
2018-10-02T09:20:53.798Z,7.20
2018-10-02T09:23:21.997Z,7.90
2018-10-02T09:25:50.158Z,7.47
2018-10-02T09:28:18.411Z,7.70
2018-10-02T09:30:52.025Z,7.25
2018-10-02T09:33:25.819Z,7.33
2018-10-02T09:35:59.203Z,7.03
2018-10-02T09:38:32.992Z,6.90
2018-10-02T09:41:06.612Z,6.75
2018-10-02T09:43:49.798Z,6.35
2018-10-02T09:46:18.064Z,5.33
2018-10-02T09:48:46.193Z,5.90
2018-10-02T09:51:14.242Z,6.10
2018-10-02T09:53:42.378Z,6.40
2018-10-02T09:56:10.469Z,6.30
2018-10-02T09:58:38.590Z,6.37
2018-10-02T10:01:11.281Z,6.10
2018-10-02T10:03:39.384Z,5.40
2018-10-02T10:06:07.575Z,6.00
2018-10-02T10:08:35.762Z,4.62
2018-10-02T10:11:03.916Z,4.35
2018-10-02T10:13:32.081Z,5.80
2018-10-02T10:16:00.273Z,5.12
2018-10-02T10:18:28.468Z,4.05
2018-10-02T10:20:56.518Z,3.90
2018-10-02T10:23:24.705Z,4.00
2018-10-02T10:25:52.870Z,3.35
2018-10-02T10:28:21.009Z,3.80
2018-10-02T10:30:49.240Z,3.72
2018-10-02T10:33:17.417Z,3.30
2018-10-02T10:35:45.444Z,3.70
2018-10-02T10:38:13.554Z,3.10
2018-10-02T10:40:41.813Z,3.50
2018-10-02T10:43:09.708Z,3.47
2018-10-02T10:45:37.729Z,3.30
2018-10-02T10:48:05.826Z,3.47
2018-10-02T10:50:33.912Z,3.00
2018-10-02T10:53:02.039Z,3.20
2018-10-02T10:55:32.737Z,2.77
2018-10-02T10:58:00.799Z,2.20
2018-10-02T11:00:28.970Z,2.70
2018-10-02T11:02:57.283Z,2.77
2018-10-02T11:05:25.368Z,2.77
2018-10-02T11:07:53.467Z,3.08
2018-10-02T11:10:21.568Z,2.90
2018-10-02T11:12:49.751Z,2.77
2018-10-02T11:15:18.982Z,2.70
2018-10-02T11:17:47.036Z,2.53
2018-10-02T11:20:46.147Z,2.83
2018-10-02T11:23:14.166Z,2.75
2018-10-02T11:25:42.479Z,2.90
2018-10-02T11:28:10.546Z,2.83
2018-10-02T11:30:38.772Z,3.10
2018-10-02T11:33:06.883Z,3.40
2018-10-02T11:35:35.116Z,3.20
2018-10-02T11:38:03.239Z,3.80
2018-10-02T11:40:31.296Z,3.17
2018-10-02T11:42:59.399Z,3.20
2018-10-02T11:45:27.657Z,3.70
2018-10-02T11:47:55.720Z,3.33
2018-10-02T11:50:24.012Z,3.12
2018-10-02T11:52:52.100Z,2.95
2018-10-02T11:55:20.175Z,3.10
2018-10-02T11:57:48.392Z,3.10
2018-10-02T12:00:16.542Z,3.10
2018-10-02T12:02:44.567Z,3.10
2018-10-02T12:05:12.658Z,2.77
2018-10-02T12:07:40.717Z,2.90
2018-10-02T12:10:08.932Z,2.70
2018-10-02T12:12:36.961Z,2.60
2018-10-02T12:15:05.184Z,2.40
2018-10-02T12:17:33.403Z,2.40
2018-10-02T12:20:01.905Z,2.20
2018-10-02T12:22:29.783Z,2.20
2018-10-02T12:24:57.956Z,2.70
2018-10-02T12:27:26.130Z,2.70
2018-10-02T12:29:54.201Z,2.50
2018-10-02T12:32:22.276Z,2.30
2018-10-02T12:34:50.336Z,2.65
2018-10-02T12:37:18.533Z,2.40
2018-10-02T12:39:46.610Z,3.35
2018-10-02T12:42:14.765Z,2.90
2018-10-02T12:44:43.072Z,2.85
2018-10-02T12:47:11.073Z,2.60
2018-10-02T12:49:39.297Z,3.05
2018-10-02T12:52:07.502Z,3.10
2018-10-02T12:54:35.548Z,3.08
2018-10-02T12:57:03.705Z,2.45
2018-10-02T12:59:31.850Z,3.20
2018-10-02T13:01:59.852Z,3.12
2018-10-02T13:04:28.048Z,2.80
2018-10-02T13:06:56.690Z,3.12
2018-10-02T13:09:24.907Z,3.10
2018-10-02T13:11:52.986Z,3.60
2018-10-02T13:14:21.134Z,3.17
2018-10-02T13:16:49.343Z,3.50
2018-10-02T13:19:17.386Z,3.10
2018-10-02T13:21:45.486Z,3.40
2018-10-02T13:24:13.532Z,3.20
2018-10-02T13:26:41.832Z,3.20
2018-10-02T13:29:09.977Z,3.02
2018-10-02T13:31:38.373Z,3.80
2018-10-02T13:34:06.453Z,3.70
2018-10-02T13:36:34.718Z,4.03
2018-10-02T13:39:03.168Z,3.20
2018-10-02T13:41:31.177Z,3.45
2018-10-02T13:43:59.285Z,2.83
2018-10-02T13:46:27.422Z,2.92
2018-10-02T13:48:55.632Z,2.85
2018-10-02T13:51:23.677Z,3.33
2018-10-02T13:53:51.783Z,3.40
2018-10-02T13:56:19.912Z,3.45
2018-10-02T13:58:48.233Z,3.70
2018-10-02T14:01:16.354Z,3.50
2018-10-02T14:03:44.335Z,3.27
2018-10-02T14:06:12.537Z,3.45
2018-10-02T14:08:40.573Z,4.17
2018-10-02T14:11:08.816Z,3.30
2018-10-02T14:13:37.046Z,3.12
2018-10-02T14:16:05.241Z,3.80
2018-10-02T14:18:33.377Z,3.17
2018-10-02T14:21:01.699Z,3.00
2018-10-02T14:23:29.762Z,3.37
2018-10-02T14:25:57.952Z,3.35
2018-10-02T14:28:26.049Z,3.40
2018-10-02T14:30:54.056Z,3.50
2018-10-02T14:33:22.271Z,3.15
2018-10-02T14:35:50.300Z,3.20
2018-10-02T14:38:18.513Z,3.10
2018-10-02T14:40:46.668Z,3.00
2018-10-02T14:43:14.754Z,3.10
2018-10-02T14:45:44.405Z,3.10
2018-10-02T14:48:12.570Z,3.20
2018-10-02T14:50:40.624Z,3.10
2018-10-02T14:53:08.794Z,3.00
2018-10-02T14:55:37.053Z,2.72
2018-10-02T14:58:08.111Z,3.02
2018-10-02T15:00:39.300Z,3.10
2018-10-02T15:03:10.643Z,3.05
2018-10-02T15:05:42.118Z,3.00
2018-10-02T15:08:13.607Z,3.50
2018-10-02T15:10:45.508Z,2.92
2018-10-02T15:13:17.482Z,3.00
2018-10-02T15:15:49.383Z,3.40
2018-10-02T15:18:21.006Z,2.80
2018-10-02T15:20:52.820Z,2.42
2018-10-02T15:23:24.379Z,3.00
2018-10-02T15:25:56.178Z,2.90
2018-10-02T15:28:50.706Z,2.87
2018-10-02T15:31:19.547Z,2.90
2018-10-02T15:33:50.781Z,3.10
2018-10-02T15:36:21.745Z,3.20
2018-10-02T15:38:52.646Z,3.10
2018-10-02T15:41:24.023Z,3.00
2018-10-02T15:43:55.354Z,2.95
2018-10-02T15:46:26.902Z,2.95
2018-10-02T15:48:58.206Z,2.90
2018-10-02T15:51:29.614Z,3.40
2018-10-02T15:54:02.181Z,2.98
2018-10-02T15:56:33.385Z,2.80
2018-10-02T15:59:04.620Z,2.75
2018-10-02T16:01:41.112Z,3.15
2018-10-02T16:04:12.406Z,2.85
2018-10-02T16:06:44.440Z,3.10
2018-10-02T16:09:17.084Z,3.17
2018-10-02T16:11:48.656Z,2.90
2018-10-02T16:14:20.454Z,3.60
2018-10-02T16:16:54.196Z,3.35
2018-10-02T16:19:25.623Z,3.10
2018-10-02T16:21:57.172Z,3.00
2018-10-02T16:24:29.378Z,3.52
2018-10-02T16:27:01.773Z,3.17
2018-10-02T16:29:34.468Z,3.60
2018-10-02T16:32:06.111Z,3.60
2018-10-02T16:34:48.981Z,3.60
2018-10-02T16:37:11.790Z,3.20
2018-10-02T16:39:44.154Z,3.60
2018-10-02T16:42:16.530Z,3.15
2018-10-02T16:44:47.678Z,3.20
2018-10-02T16:47:18.697Z,3.45
2018-10-02T16:49:50.063Z,3.00
2018-10-02T16:52:21.647Z,3.22
2018-10-02T16:54:53.319Z,3.47
2018-10-02T16:57:24.673Z,3.30
2018-10-02T16:59:55.977Z,3.40
2018-10-02T17:02:27.682Z,3.62
2018-10-02T17:04:59.383Z,3.40
2018-10-02T17:07:31.383Z,2.92
2018-10-02T17:10:03.567Z,3.80
2018-10-02T17:12:35.635Z,3.47
2018-10-02T17:15:07.466Z,3.72
2018-10-02T17:17:38.689Z,3.60
2018-10-02T17:20:10.539Z,4.10
2018-10-02T17:22:42.226Z,3.80
2018-10-02T17:25:14.019Z,3.60
2018-10-02T17:27:47.150Z,3.60
2018-10-02T17:30:18.443Z,3.97
2018-10-02T17:32:49.559Z,3.80
2018-10-02T17:35:21.011Z,4.00
2018-10-02T17:37:52.326Z,3.95
2018-10-02T17:40:24.005Z,3.83
2018-10-02T17:42:55.526Z,3.58
2018-10-02T17:45:27.122Z,3.40
2018-10-02T17:47:58.910Z,3.50
2018-10-02T17:50:30.891Z,3.60
2018-10-02T17:53:02.756Z,3.73
2018-10-02T17:55:35.773Z,3.67
2018-10-02T17:58:08.806Z,3.02
2018-10-02T18:00:41.781Z,3.70
2018-10-02T18:03:13.495Z,3.30
2018-10-02T18:05:44.651Z,3.30
2018-10-02T18:08:16.089Z,2.92
2018-10-02T18:10:47.544Z,3.12
2018-10-02T18:13:18.923Z,3.20
2018-10-02T18:15:50.047Z,3.05
2018-10-02T18:18:21.300Z,2.70
2018-10-02T18:20:52.388Z,2.70
2018-10-02T18:23:23.811Z,2.80
2018-10-02T18:25:55.116Z,2.45
2018-10-02T18:28:26.590Z,2.58
2018-10-02T18:30:58.886Z,2.70
2018-10-02T18:33:30.516Z,2.35
2018-10-02T18:36:02.277Z,2.50
2018-10-02T18:38:34.129Z,2.20
2018-10-02T18:41:05.148Z,2.80
2018-10-02T18:43:37.281Z,2.67
2018-10-02T18:46:08.095Z,2.40
2018-10-02T18:48:39.935Z,2.60
2018-10-02T18:51:11.861Z,2.90
2018-10-02T18:56:28.481Z,2.40
2018-10-02T18:58:59.594Z,3.08
2018-10-02T19:01:30.909Z,2.83
2018-10-02T19:04:02.430Z,3.12
2018-10-02T19:06:34.501Z,2.72
2018-10-02T19:09:17.811Z,2.70
2018-10-02T19:11:54.794Z,3.22
2018-10-02T19:14:27.233Z,3.00
2018-10-02T19:16:59.231Z,3.55
2018-10-02T19:19:35.665Z,3.10
2018-10-02T19:22:07.433Z,3.20
2018-10-02T19:24:39.472Z,2.75
2018-10-02T19:27:12.076Z,3.00
2018-10-02T19:29:43.865Z,3.20
2018-10-02T19:32:17.688Z,3.50
2018-10-02T19:34:49.187Z,3.47
2018-10-02T19:38:28.910Z,3.30
2018-10-02T19:41:00.572Z,3.00
2018-10-02T19:43:32.012Z,3.20
2018-10-02T19:46:08.451Z,3.52
2018-10-02T19:48:39.821Z,3.05
2018-10-02T19:51:16.453Z,3.00
2018-10-02T19:53:48.411Z,3.10
2018-10-02T19:56:20.138Z,2.83
2018-10-02T19:58:52.418Z,2.45
2018-10-02T20:01:24.366Z,2.80
2018-10-02T20:03:56.696Z,2.70
2018-10-02T20:06:28.694Z,3.10
2018-10-02T20:09:00.460Z,2.50
2018-10-02T20:11:32.383Z,2.70
2018-10-02T20:14:04.283Z,2.70
2018-10-02T20:16:36.434Z,3.30
2018-10-02T20:19:08.390Z,2.60
2018-10-02T20:21:40.404Z,2.60
2018-10-02T20:24:12.068Z,3.30
2018-10-02T20:26:44.239Z,2.92
2018-10-02T20:29:15.965Z,2.75
2018-10-02T20:31:49.742Z,2.80
2018-10-02T20:34:21.485Z,3.03
2018-10-02T20:36:53.317Z,2.75
2018-10-02T20:39:25.367Z,3.40
2018-10-02T20:41:57.482Z,3.10
2018-10-02T20:44:29.837Z,3.00
2018-10-02T20:47:01.617Z,3.40
2018-10-02T20:49:33.317Z,3.33
2018-10-02T20:52:05.606Z,3.42
2018-10-02T20:54:37.274Z,3.47
2018-10-02T20:57:09.018Z,3.90
2018-10-02T20:59:41.503Z,3.80
2018-10-02T21:02:13.442Z,3.60
2018-10-02T21:04:45.348Z,3.45
2018-10-02T21:07:17.527Z,3.50
2018-10-02T21:09:49.423Z,3.67
2018-10-02T21:12:21.486Z,4.20
2018-10-02T21:14:53.179Z,4.40
2018-10-02T21:17:24.919Z,3.77
2018-10-02T21:19:56.298Z,3.67
2018-10-02T21:22:27.933Z,3.87
2018-10-02T21:24:59.728Z,4.58
2018-10-02T21:27:31.658Z,4.17
2018-10-02T21:30:04.011Z,4.47
2018-10-02T21:32:35.972Z,4.33
2018-10-02T21:35:07.798Z,4.62
2018-10-02T21:37:39.910Z,4.70
2018-10-02T21:40:12.231Z,4.80
2018-10-02T21:42:43.979Z,5.10
2018-10-02T21:45:16.129Z,4.80
2018-10-02T21:47:47.884Z,4.80
2018-10-02T21:50:19.949Z,4.70
2018-10-02T21:52:52.047Z,5.22
2018-10-02T21:55:23.885Z,5.00
2018-10-02T21:57:55.673Z,5.20
2018-10-02T22:00:28.436Z,5.17
2018-10-02T22:03:00.469Z,5.15
2018-10-02T22:05:31.910Z,5.40
2018-10-02T22:08:03.888Z,5.00
2018-10-02T22:10:35.543Z,4.62
2018-10-02T22:13:07.764Z,5.10
2018-10-02T22:15:39.190Z,5.08
2018-10-02T22:18:10.804Z,4.90
2018-10-02T22:20:42.390Z,5.25
2018-10-02T22:23:13.837Z,5.00
2018-10-02T22:25:45.445Z,4.70
2018-10-02T22:28:16.838Z,5.30
2018-10-02T22:30:48.440Z,5.37
2018-10-02T22:33:20.291Z,5.30
2018-10-02T22:35:52.424Z,5.53
2018-10-02T22:38:24.667Z,5.15
2018-10-02T22:40:56.795Z,5.00
2018-10-02T22:43:28.688Z,4.90
2018-10-02T22:46:00.573Z,5.55
2018-10-02T22:48:31.903Z,4.80
2018-10-02T22:51:03.943Z,5.65
2018-10-02T22:53:35.891Z,5.35
2018-10-02T22:56:07.823Z,5.00
2018-10-02T22:58:39.825Z,4.75
2018-10-02T23:01:11.870Z,4.70
2018-10-02T23:03:43.413Z,4.25
2018-10-02T23:06:15.936Z,4.30
2018-10-02T23:08:47.656Z,4.58
2018-10-02T23:11:19.097Z,4.40
2018-10-02T23:13:50.987Z,4.47
2018-10-02T23:16:23.063Z,4.90
2018-10-02T23:18:55.142Z,4.70
2018-10-02T23:21:27.012Z,4.65
2018-10-02T23:23:58.725Z,4.97
2018-10-02T23:26:30.735Z,5.10
2018-10-02T23:29:02.954Z,5.05
2018-10-02T23:31:34.853Z,4.90
2018-10-02T23:34:06.708Z,4.60
2018-10-02T23:36:38.793Z,4.30
2018-10-02T23:39:11.984Z,4.58
2018-10-02T23:41:43.201Z,4.70
2018-10-02T23:44:15.296Z,5.20
2018-10-02T23:46:48.226Z,4.72
2018-10-02T23:49:20.239Z,4.70
2018-10-02T23:51:52.235Z,4.90
2018-10-02T23:54:24.410Z,5.40
2018-10-02T23:56:56.091Z,4.90
2018-10-02T23:59:27.921Z,4.65
